Kalar Kahar Weather



Kalar Kahar's Current Weather

Temprature 9.83o overcast clouds

overcast clouds

Rain: 0 %

Min Temprature9.83o
Max Temprature9.83o
Humidity64
Wind Speed0.8 m/h
Sun Rise07:01:53
Sun Set17:03:38
Current Time: 12-Dec-2019 01:30:34
Lat/Lon: 32.78, 72.7




Kalar Kahar's Geo Location



Kalar Kahar's Weather Forecast

Time Overall Temp Min Temp Max Temp Humidity Wind Speed Rain
12-Dec-2019 (Thu)
02:00:00 overcast clouds 9.830 9.830 9.830 64 0.8 m/h 0 %
05:00:00 broken clouds 9.370 9.370 9.370 66 1.08 m/h 0 %
08:00:00 overcast clouds 11.260 11.260 11.260 61 1.05 m/h 0 %
11:00:00 overcast clouds 15.420 15.420 15.420 45 0.92 m/h 0 %
14:00:00 overcast clouds 16.860 16.860 16.860 40 0.68 m/h 0 %
17:00:00 overcast clouds 14.970 14.970 14.970 47 3.98 m/h 0 %
20:00:00 light rain 11.160 11.160 11.160 80 2.75 m/h 200 %
23:00:00 light rain 10.530 10.530 10.530 84 2.42 m/h 244 %
13-Dec-2019 (Fri)
02:00:00 light rain 10.480 10.480 10.480 85 1.81 m/h 125 %
05:00:00 light rain 10.450 10.450 10.450 85 1.91 m/h 50 %
08:00:00 light rain 10.250 10.250 10.250 86 3.62 m/h 69 %
11:00:00 light rain 11.830 11.830 11.830 73 2.2 m/h 6 %
14:00:00 broken clouds 14.370 14.370 14.370 57 2.14 m/h 0 %
17:00:00 scattered clouds 12.760 12.760 12.760 65 1.34 m/h 0 %
20:00:00 clear sky 11.180 11.180 11.180 73 1.4 m/h 0 %
23:00:00 clear sky 10.120 10.120 10.120 79 1.28 m/h 0 %
14-Dec-2019 (Sat)
02:00:00 clear sky 9.040 9.040 9.040 81 0.44 m/h 0 %
05:00:00 clear sky 8.530 8.530 8.530 84 0.89 m/h 0 %
08:00:00 clear sky 10.110 10.110 10.110 77 1.52 m/h 0 %
11:00:00 clear sky 14.560 14.560 14.560 56 0.57 m/h 0 %
14:00:00 clear sky 16.280 16.280 16.280 48 2.12 m/h 0 %
17:00:00 clear sky 14.050 14.050 14.050 57 1.79 m/h 0 %
20:00:00 clear sky 12.120 12.120 12.120 65 1.56 m/h 0 %
23:00:00 clear sky 10.640 10.640 10.640 73 1.17 m/h 0 %
15-Dec-2019 (Sun)
02:00:00 clear sky 9.620 9.620 9.620 77 1.26 m/h 0 %
05:00:00 clear sky 8.910 8.910 8.910 79 1.76 m/h 0 %
08:00:00 clear sky 9.610 9.610 9.610 74 1.43 m/h 0 %
11:00:00 clear sky 14.860 14.860 14.860 52 3.97 m/h 0 %
14:00:00 clear sky 16.910 16.910 16.910 41 4.25 m/h 0 %
17:00:00 clear sky 14.020 14.020 14.020 47 2.32 m/h 0 %
20:00:00 clear sky 10.910 10.910 10.910 54 0.82 m/h 0 %
23:00:00 clear sky 9.640 9.640 9.640 55 0.5 m/h 0 %
16-Dec-2019 (Mon)
02:00:00 clear sky 8.880 8.880 8.880 53 1.14 m/h 0 %
05:00:00 clear sky 8.200 8.200 8.200 52 1.56 m/h 0 %
08:00:00 clear sky 9.120 9.120 9.120 55 1.5 m/h 0 %
11:00:00 clear sky 15.090 15.090 15.090 31 4.01 m/h 0 %
14:00:00 clear sky 16.980 16.980 16.980 24 4.9 m/h 0 %
17:00:00 clear sky 13.660 13.660 13.660 30 2.8 m/h 0 %
20:00:00 clear sky 10.180 10.180 10.180 36 0.85 m/h 0 %
23:00:00 clear sky 9.320 9.320 9.320 34 1.12 m/h 0 %

Famous Cities (61)